Time;durP1;ratioP1;P1;durP2;ratioP2;P2;SDS_P1;SDS_P2;PMS_P1;PMS_P2;Temp;Humidity;BMP_temperature;BMP_pressure;BME280_temperature;BME280_humidity;BME280_pressure;Samples;Min_cycle;Max_cycle;Signal;HPM_P1;HPM_P2
2022/03/18 00:00:21;;;;;;;6.75;5.50;;;7.60;99.90;;;;;;4899021;29;20255;-77
2022/03/18 00:02:52;;;;;;;7.18;5.40;;;7.60;99.90;;;;;;4897742;29;20205;-77
2022/03/18 00:05:18;;;;;;;6.85;5.78;;;7.70;99.90;;;;;;4897881;29;20204;-77
2022/03/18 00:07:46;;;;;;;13.02;10.77;;;7.70;99.90;;;;;;4897898;29;20211;-77
2022/03/18 00:10:13;;;;;;;19.13;12.82;;;7.70;99.90;;;;;;4897832;29;20239;-77
2022/03/18 00:12:40;;;;;;;13.63;9.63;;;7.70;99.90;;;;;;4897472;29;20187;-77
2022/03/18 00:15:33;;;;;;;13.48;7.88;;;7.70;99.90;;;;;;4899119;29;20210;-75
2022/03/18 00:17:59;;;;;;;11.50;7.25;;;7.70;99.90;;;;;;4897255;29;20212;-75
2022/03/18 00:20:47;;;;;;;18.40;10.27;;;7.70;99.90;;;;;;4898347;29;20186;-75
2022/03/18 00:23:22;;;;;;;11.50;8.80;;;7.70;99.90;;;;;;4898620;29;20195;-75
2022/03/18 00:25:48;;;;;;;12.10;8.30;;;7.70;99.90;;;;;;4895741;29;20198;-75
2022/03/18 00:28:30;;;;;;;13.95;8.85;;;7.70;99.90;;;;;;4901181;29;20195;-75
2022/03/18 00:30:57;;;;;;;12.73;8.80;;;7.70;99.90;;;;;;4897184;29;20202;-76
2022/03/18 00:33:45;;;;;;;11.02;8.18;;;7.60;99.90;;;;;;4896795;29;20643;-77
2022/03/18 00:36:21;;;;;;;10.35;6.95;;;7.60;99.90;;;;;;4897116;29;20207;-75
2022/03/18 00:39:05;;;;;;;6.78;5.72;;;7.60;99.90;;;;;;4897530;29;20298;-76
2022/03/18 00:41:34;;;;;;;11.30;6.03;;;7.60;99.90;;;;;;4896873;29;20188;-76
2022/03/18 00:43:59;;;;;;;9.35;5.82;;;7.60;99.90;;;;;;4898502;29;20172;-76
2022/03/18 00:46:33;;;;;;;7.82;6.18;;;7.60;99.90;;;;;;4898110;29;20247;-75
2022/03/18 00:54:27;;;;;;;8.43;5.55;;;7.50;99.90;;;;;;4902483;29;20190;-76
2022/03/18 00:56:53;;;;;;;7.95;5.88;;;7.50;99.90;;;;;;4900936;29;20207;-76
2022/03/18 00:59:18;;;;;;;10.98;5.88;;;7.50;99.90;;;;;;4900787;29;20195;-76
2022/03/18 01:01:44;;;;;;;8.43;5.90;;;7.50;99.90;;;;;;4902196;29;20262;-76
2022/03/18 01:04:10;;;;;;;9.65;5.82;;;7.50;99.90;;;;;;4900711;29;20566;-76
2022/03/18 01:06:35;;;;;;;9.95;6.22;;;7.50;99.90;;;;;;4901089;29;20207;-76
2022/03/18 01:15:34;;;;;;;10.27;5.72;;;7.40;99.90;;;;;;4901570;29;20227;-76
2022/03/18 01:18:41;;;;;;;7.82;5.15;;;7.40;99.90;;;;;;4900593;29;20243;-77
2022/03/18 01:21:07;;;;;;;5.65;5.07;;;7.40;99.90;;;;;;4911029;29;20176;-76
2022/03/18 01:23:32;;;;;;;10.80;5.82;;;7.40;99.90;;;;;;4901419;29;20207;-76
2022/03/18 01:25:58;;;;;;;12.10;5.50;;;7.30;99.90;;;;;;4900609;29;20202;-76
2022/03/18 01:28:27;;;;;;;7.70;5.43;;;7.40;99.90;;;;;;4900406;29;20251;-76
2022/03/18 01:30:53;;;;;;;9.50;5.35;;;7.30;99.90;;;;;;4901066;29;20176;-76
2022/03/18 01:33:19;;;;;;;9.55;5.72;;;7.30;99.90;;;;;;4900670;29;20251;-76
2022/03/18 01:35:45;;;;;;;9.07;4.90;;;7.30;99.90;;;;;;4900639;29;20335;-76
2022/03/18 01:39:05;;;;;;;10.93;5.57;;;7.40;99.90;;;;;;4900782;29;20247;-77
2022/03/18 01:41:32;;;;;;;8.00;4.57;;;7.30;99.90;;;;;;4900334;29;20206;-76
2022/03/18 01:43:57;;;;;;;6.32;4.88;;;7.20;99.90;;;;;;4900222;29;20190;-76
2022/03/18 01:46:27;;;;;;;10.25;5.03;;;7.10;99.90;;;;;;4898375;29;20203;-77
2022/03/18 01:49:02;;;;;;;9.35;4.35;;;7.10;99.90;;;;;;4899443;29;20277;-76
2022/03/18 01:51:29;;;;;;;11.98;4.90;;;7.10;99.90;;;;;;4914225;29;20199;-76
2022/03/18 01:54:44;;;;;;;6.85;4.40;;;7.10;99.90;;;;;;4899930;29;20179;-76
2022/03/18 02:00:32;;;;;;;10.90;4.93;;;7.00;99.90;;;;;;4882412;29;20229;-76
2022/03/18 02:03:06;;;;;;;10.55;4.05;;;7.00;99.90;;;;;;4892732;29;20179;-77
2022/03/18 02:05:57;;;;;;;7.90;4.25;;;7.10;99.90;;;;;;4900133;29;20292;-77
2022/03/18 02:08:24;;;;;;;7.55;4.18;;;7.10;99.90;;;;;;4899538;29;20184;-77
2022/03/18 02:10:50;;;;;;;8.50;4.43;;;7.10;99.90;;;;;;4900721;29;20258;-77
2022/03/18 02:13:16;;;;;;;9.50;4.28;;;7.10;99.90;;;;;;4898975;29;20184;-77
2022/03/18 02:15:42;;;;;;;10.23;4.03;;;7.10;99.90;;;;;;4907006;29;20218;-77
2022/03/18 02:18:07;;;;;;;8.43;4.65;;;7.10;99.90;;;;;;4899585;29;20294;-77
2022/03/18 02:20:34;;;;;;;8.25;3.67;;;7.10;99.90;;;;;;4899351;29;20195;-77
2022/03/18 02:23:01;;;;;;;16.02;4.30;;;7.10;99.90;;;;;;4900308;29;20194;-77
2022/03/18 02:25:27;;;;;;;9.88;4.18;;;7.10;99.90;;;;;;4899443;29;20211;-77
2022/03/18 02:27:59;;;;;;;11.18;4.57;;;7.10;99.90;;;;;;4898668;29;20214;-76
2022/03/18 02:30:26;;;;;;;6.90;4.15;;;7.10;99.90;;;;;;4910009;29;20191;-77
2022/03/18 02:32:52;;;;;;;8.30;4.82;;;7.10;99.90;;;;;;4919282;29;20230;-76
2022/03/18 02:35:17;;;;;;;6.75;4.00;;;7.10;99.90;;;;;;4918352;29;20205;-76
2022/03/18 02:37:43;;;;;;;6.75;3.90;;;7.10;99.90;;;;;;4918225;29;20187;-76
2022/03/18 02:40:09;;;;;;;9.25;3.60;;;7.10;99.90;;;;;;4918132;29;20202;-76
2022/03/18 02:42:35;;;;;;;8.85;4.03;;;7.20;99.90;;;;;;4919244;29;20255;-76
2022/03/18 02:45:01;;;;;;;6.75;3.85;;;7.10;99.90;;;;;;4918448;29;20227;-76
2022/03/18 02:47:27;;;;;;;6.22;3.67;;;7.20;99.90;;;;;;4917927;29;20183;-76
2022/03/18 02:49:52;;;;;;;6.68;3.70;;;7.10;99.90;;;;;;4918113;29;20183;-76
2022/03/18 02:52:19;;;;;;;6.80;3.97;;;7.20;99.90;;;;;;4917757;29;20242;-76
2022/03/18 02:54:45;;;;;;;8.18;3.80;;;7.20;99.90;;;;;;4917747;29;20278;-76
2022/03/18 02:57:10;;;;;;;7.32;3.50;;;7.10;99.90;;;;;;4917603;29;20210;-76
2022/03/18 02:59:36;;;;;;;10.40;4.30;;;7.20;99.90;;;;;;4917841;29;20250;-76
2022/03/18 03:02:02;;;;;;;10.50;4.18;;;7.20;99.90;;;;;;4917690;29;20179;-76
2022/03/18 03:04:28;;;;;;;7.85;3.90;;;7.10;99.90;;;;;;4917585;29;20552;-76
2022/03/18 03:09:37;;;;;;;8.85;4.13;;;7.10;99.90;;;;;;4918876;29;20178;-76
2022/03/18 03:12:03;;;;;;;10.80;3.63;;;7.10;99.90;;;;;;4902613;29;20251;-77
2022/03/18 03:14:29;;;;;;;9.00;4.32;;;7.10;99.90;;;;;;4899009;29;20220;-77
2022/03/18 03:16:55;;;;;;;6.10;3.72;;;7.10;99.90;;;;;;4897559;29;20235;-77
2022/03/18 03:19:20;;;;;;;10.35;4.32;;;7.10;99.90;;;;;;4899044;29;20215;-77
2022/03/18 03:21:48;;;;;;;7.95;3.58;;;7.00;99.90;;;;;;4898347;29;20183;-77
2022/03/18 03:24:14;;;;;;;9.75;3.47;;;7.10;99.90;;;;;;4898311;29;20558;-77
2022/03/18 03:26:40;;;;;;;7.68;3.55;;;7.00;99.90;;;;;;4901585;29;20203;-77
2022/03/18 03:29:05;;;;;;;8.85;3.63;;;7.00;99.90;;;;;;4897762;29;20223;-77
2022/03/18 03:31:31;;;;;;;7.63;3.70;;;7.00;99.90;;;;;;4899243;29;20187;-77
2022/03/18 03:33:56;;;;;;;9.95;3.75;;;7.00;99.90;;;;;;4898101;29;20191;-76
2022/03/18 03:36:23;;;;;;;6.57;3.47;;;7.00;99.90;;;;;;4897887;29;20214;-76
2022/03/18 03:38:49;;;;;;;7.43;3.88;;;7.00;99.90;;;;;;4897595;29;20207;-78
2022/03/18 03:41:14;;;;;;;11.93;3.72;;;7.00;99.90;;;;;;4892969;29;20567;-77
2022/03/18 03:43:41;;;;;;;10.70;3.70;;;7.10;99.90;;;;;;4882453;29;20191;-76
2022/03/18 03:46:07;;;;;;;8.95;3.63;;;7.00;99.90;;;;;;4898307;29;20203;-78
2022/03/18 03:48:32;;;;;;;9.43;4.00;;;7.10;99.90;;;;;;4897754;29;20199;-77
2022/03/18 03:50:58;;;;;;;8.43;3.92;;;7.00;99.90;;;;;;4897458;29;20179;-77
2022/03/18 03:53:30;;;;;;;11.60;4.10;;;7.10;99.90;;;;;;4897035;29;20195;-77
2022/03/18 03:55:56;;;;;;;9.50;3.78;;;7.00;99.90;;;;;;4897214;29;20207;-76
2022/03/18 03:58:21;;;;;;;7.38;3.42;;;7.10;99.90;;;;;;4897051;29;20214;-77
2022/03/18 04:00:47;;;;;;;6.53;3.35;;;7.10;99.90;;;;;;4896631;29;20184;-76
2022/03/18 04:03:13;;;;;;;9.20;3.95;;;7.10;99.90;;;;;;4894142;29;20208;-78
2022/03/18 04:05:39;;;;;;;8.38;4.13;;;7.10;99.90;;;;;;4894652;29;20200;-77
2022/03/18 04:08:05;;;;;;;9.82;3.83;;;7.10;99.90;;;;;;4894769;29;20188;-76
2022/03/18 04:10:30;;;;;;;12.27;4.22;;;7.10;99.90;;;;;;4889074;29;20187;-77
2022/03/18 04:12:56;;;;;;;11.15;4.00;;;7.00;99.90;;;;;;4897390;29;20183;-76
2022/03/18 04:15:23;;;;;;;8.30;4.40;;;7.00;99.90;;;;;;4891418;29;20212;-77
2022/03/18 04:17:49;;;;;;;11.07;3.90;;;7.00;99.90;;;;;;4894209;29;20252;-77
2022/03/18 04:20:21;;;;;;;6.85;3.67;;;7.00;99.90;;;;;;4880106;29;20184;-77
2022/03/18 04:22:47;;;;;;;9.85;3.92;;;7.00;99.90;;;;;;4889949;29;20183;-77
2022/03/18 04:25:13;;;;;;;7.68;3.40;;;6.90;99.90;;;;;;4897202;29;20208;-77
2022/03/18 04:27:40;;;;;;;11.30;4.27;;;6.80;99.90;;;;;;4897942;29;20234;-78
2022/03/18 04:30:08;;;;;;;11.70;5.22;;;6.90;99.90;;;;;;4897534;29;20682;-77
2022/03/18 04:32:34;;;;;;;9.27;4.57;;;6.90;99.90;;;;;;4896463;29;20663;-77
2022/03/18 04:34:59;;;;;;;12.32;4.20;;;6.80;99.90;;;;;;4884909;29;20243;-77
2022/03/18 04:37:37;;;;;;;7.95;3.97;;;6.80;99.90;;;;;;4887307;29;20247;-77
2022/03/18 04:40:04;;;;;;;10.50;3.97;;;6.90;99.90;;;;;;4889727;29;20282;-77
2022/03/18 04:42:30;;;;;;;10.70;4.20;;;6.90;99.90;;;;;;4897539;29;20218;-77
2022/03/18 04:44:55;;;;;;;7.72;3.67;;;6.90;99.90;;;;;;4897165;29;20206;-76
2022/03/18 04:47:21;;;;;;;15.38;3.95;;;6.80;99.90;;;;;;4897223;29;20180;-76
2022/03/18 04:49:47;;;;;;;8.73;3.97;;;6.80;99.90;;;;;;4897509;29;20187;-76
2022/03/18 04:52:12;;;;;;;9.70;4.20;;;6.90;99.90;;;;;;4897000;29;20184;-77
2022/03/18 04:54:38;;;;;;;6.43;3.53;;;6.80;99.90;;;;;;4896857;29;20184;-77
2022/03/18 04:57:37;;;;;;;10.57;3.78;;;6.80;99.90;;;;;;4898077;29;20176;-77
2022/03/18 04:59:56;;;;;;;11.02;4.07;;;6.70;99.90;;;;;;4906591;29;20215;-76
2022/03/18 05:02:22;;;;;;;10.65;4.00;;;6.80;99.90;;;;;;4906146;29;20212;-77
2022/03/18 05:04:49;;;;;;;7.85;3.33;;;6.80;99.90;;;;;;4902556;29;20188;-77
2022/03/18 05:07:15;;;;;;;11.02;3.95;;;6.90;99.90;;;;;;4903702;29;20180;-77
2022/03/18 05:09:42;;;;;;;10.18;4.07;;;6.80;99.90;;;;;;4897812;29;20192;-77
2022/03/18 05:12:10;;;;;;;8.73;3.90;;;6.90;99.90;;;;;;4902790;29;20195;-77
2022/03/18 05:14:37;;;;;;;8.95;3.72;;;6.90;99.90;;;;;;4913293;29;20188;-77
2022/03/18 05:17:05;;;;;;;12.20;3.63;;;6.80;99.90;;;;;;4904999;29;20176;-77
2022/03/18 05:19:31;;;;;;;11.18;4.18;;;6.80;99.90;;;;;;4904895;29;20577;-77
2022/03/18 05:21:58;;;;;;;9.27;3.75;;;6.80;99.90;;;;;;4904614;29;20188;-77
2022/03/18 05:24:26;;;;;;;9.85;3.55;;;6.80;99.90;;;;;;4904831;29;20215;-77
2022/03/18 05:26:52;;;;;;;11.93;3.90;;;6.90;99.90;;;;;;4904508;29;20228;-77
2022/03/18 05:29:18;;;;;;;6.78;3.72;;;6.90;99.90;;;;;;4908322;29;20190;-78
2022/03/18 05:31:45;;;;;;;8.25;3.67;;;6.90;99.90;;;;;;4907060;29;20571;-78
2022/03/18 05:34:12;;;;;;;9.25;3.80;;;6.90;99.90;;;;;;4909561;29;20190;-78
2022/03/18 05:36:39;;;;;;;13.10;4.10;;;6.80;99.90;;;;;;4912398;29;20702;-78
2022/03/18 05:39:06;;;;;;;12.15;4.03;;;6.80;99.90;;;;;;4910681;29;20219;-84
2022/03/18 05:41:32;;;;;;;11.70;5.20;;;6.80;99.90;;;;;;4911844;29;20223;-82
2022/03/18 05:43:58;;;;;;;9.93;4.60;;;6.80;99.90;;;;;;4910629;29;20235;-79
2022/03/18 05:46:24;;;;;;;10.43;4.78;;;6.80;99.90;;;;;;4906442;29;20208;-78
2022/03/18 05:48:50;;;;;;;10.85;3.90;;;6.80;99.90;;;;;;4904261;29;20195;-78
2022/03/18 05:51:16;;;;;;;10.15;4.80;;;6.80;99.90;;;;;;4901316;29;20227;-78
2022/03/18 05:53:42;;;;;;;10.35;4.53;;;6.90;99.90;;;;;;4896060;29;20196;-78
2022/03/18 05:58:51;;;;;;;7.20;3.97;;;6.80;99.60;;;;;;4893907;29;20221;-78
2022/03/18 06:01:17;;;;;;;7.70;3.70;;;6.80;99.60;;;;;;4896244;29;20270;-78
2022/03/18 06:03:43;;;;;;;11.00;4.68;;;6.80;99.10;;;;;;4898978;29;20191;-78
2022/03/18 06:06:09;;;;;;;12.32;6.85;;;6.80;99.30;;;;;;4896883;29;20200;-78
2022/03/18 06:14:02;;;;;;;15.77;5.65;;;6.80;99.40;;;;;;4895504;29;20191;-78
2022/03/18 06:16:28;;;;;;;11.60;4.78;;;6.80;98.90;;;;;;4902670;29;20604;-78
2022/03/18 06:18:54;;;;;;;9.65;4.13;;;6.80;99.00;;;;;;4901269;29;20344;-78
2022/03/18 06:21:21;;;;;;;8.13;3.55;;;6.80;98.80;;;;;;4900087;29;20323;-78
2022/03/18 06:23:47;;;;;;;11.70;3.60;;;6.80;99.50;;;;;;4898252;29;20188;-78
2022/03/18 06:26:22;;;;;;;10.93;3.83;;;6.80;99.90;;;;;;4894424;29;20211;-77
2022/03/18 06:28:48;;;;;;;11.63;3.95;;;6.80;99.90;;;;;;4896348;29;20195;-78
2022/03/18 06:31:13;;;;;;;10.65;3.88;;;6.80;99.70;;;;;;4901518;29;20602;-78
2022/03/18 06:33:43;;;;;;;8.80;3.92;;;6.80;99.60;;;;;;4900362;29;20219;-78
2022/03/18 06:36:12;;;;;;;8.60;3.38;;;6.80;98.50;;;;;;4903657;29;20216;-79
2022/03/18 06:38:38;;;;;;;9.20;3.78;;;6.90;98.40;;;;;;4905574;29;20254;-78
2022/03/18 06:41:04;;;;;;;13.55;4.13;;;6.90;98.20;;;;;;4902399;29;20199;-79
2022/03/18 06:43:30;;;;;;;8.02;3.45;;;6.90;97.90;;;;;;4903714;29;20184;-79
2022/03/18 06:45:56;;;;;;;9.50;4.25;;;6.90;97.80;;;;;;4902782;29;20207;-78
2022/03/18 06:48:21;;;;;;;8.35;3.42;;;6.90;97.90;;;;;;4902566;29;20273;-78
2022/03/18 06:50:47;;;;;;;7.63;3.40;;;7.00;97.70;;;;;;4900738;29;20199;-78
2022/03/18 06:53:13;;;;;;;13.35;3.70;;;6.90;97.30;;;;;;4901569;29;20216;-78
2022/03/18 06:55:38;;;;;;;10.85;3.25;;;7.00;97.10;;;;;;4901721;29;20223;-78
2022/03/18 06:58:04;;;;;;;10.27;3.55;;;6.90;96.60;;;;;;4900849;29;20215;-78
2022/03/18 07:00:29;;;;;;;13.88;3.40;;;7.00;96.20;;;;;;4900629;29;20202;-79
2022/03/18 07:02:55;;;;;;;13.02;3.97;;;7.00;95.60;;;;;;4899954;29;20194;-78
2022/03/18 07:05:21;;;;;;;9.10;3.58;;;7.00;96.10;;;;;;4899996;29;20210;-78
2022/03/18 07:07:48;;;;;;;14.63;3.63;;;7.00;95.70;;;;;;4900111;29;20180;-78
2022/03/18 07:10:14;;;;;;;6.57;2.60;;;7.10;95.30;;;;;;4900149;29;20206;-78
2022/03/18 07:12:40;;;;;;;13.30;3.58;;;7.10;94.70;;;;;;4898744;29;20267;-77
2022/03/18 07:15:06;;;;;;;8.15;3.10;;;7.10;94.00;;;;;;4899697;29;20227;-77
2022/03/18 07:20:16;;;;;;;7.72;3.20;;;7.20;93.60;;;;;;4900206;29;20170;-78
2022/03/18 07:22:42;;;;;;;11.73;3.10;;;7.30;93.20;;;;;;4898265;29;20179;-78
2022/03/18 07:25:08;;;;;;;9.55;3.55;;;7.40;92.50;;;;;;4898547;29;20259;-77
2022/03/18 07:27:34;;;;;;;13.70;3.35;;;7.40;91.70;;;;;;4898380;29;20198;-77
2022/03/18 07:30:00;;;;;;;8.65;4.25;;;7.50;91.50;;;;;;4899340;29;20652;-78
2022/03/18 07:32:25;;;;;;;8.15;3.75;;;7.50;91.50;;;;;;4899587;29;20179;-78
2022/03/18 07:34:51;;;;;;;12.02;3.63;;;7.70;91.20;;;;;;4900766;29;20265;-78
2022/03/18 07:37:16;;;;;;;10.70;3.33;;;7.80;90.40;;;;;;4900667;29;20327;-78
2022/03/18 07:39:42;;;;;;;11.52;3.00;;;7.70;90.10;;;;;;4899798;29;20206;-78
2022/03/18 07:42:07;;;;;;;13.50;3.53;;;7.80;90.00;;;;;;4899956;29;20713;-78
2022/03/18 07:44:36;;;;;;;8.27;3.05;;;7.80;88.40;;;;;;4897977;29;20188;-78
2022/03/18 07:47:02;;;;;;;8.05;3.40;;;7.80;87.60;;;;;;4898114;29;20251;-78
2022/03/18 07:49:28;;;;;;;12.70;3.42;;;7.90;88.20;;;;;;4899162;29;20191;-78
2022/03/18 07:51:53;;;;;;;8.50;3.67;;;8.00;88.50;;;;;;4898505;29;20712;-78
2022/03/18 07:54:19;;;;;;;9.75;3.45;;;8.00;86.30;;;;;;4897883;29;20211;-78
2022/03/18 07:56:44;;;;;;;10.70;3.63;;;8.10;85.90;;;;;;4898213;29;20203;-78
2022/03/18 07:59:10;;;;;;;6.07;3.38;;;8.10;86.90;;;;;;4898892;29;20207;-77
2022/03/18 08:01:39;;;;;;;7.53;3.58;;;8.20;86.20;;;;;;4898280;29;20180;-78
2022/03/18 08:04:06;;;;;;;4.80;2.80;;;8.30;85.60;;;;;;4898333;29;20191;-78
2022/03/18 08:06:32;;;;;;;12.43;3.42;;;8.30;85.10;;;;;;4899111;29;20545;-78
2022/03/18 08:08:57;;;;;;;9.50;3.45;;;8.40;83.90;;;;;;4897842;29;20195;-78
2022/03/18 08:11:23;;;;;;;8.55;3.08;;;8.30;82.50;;;;;;4898194;29;20191;-78
2022/03/18 08:13:50;;;;;;;8.85;3.05;;;8.30;81.90;;;;;;4899598;29;20187;-78
2022/03/18 08:16:16;;;;;;;8.85;3.00;;;8.30;82.10;;;;;;4899938;29;20203;-79
2022/03/18 08:18:42;;;;;;;10.95;2.53;;;8.30;81.90;;;;;;4901363;29;20212;-78
2022/03/18 08:21:07;;;;;;;15.43;3.53;;;8.30;81.20;;;;;;4900359;29;20183;-78
2022/03/18 08:23:34;;;;;;;6.70;2.67;;;8.30;80.30;;;;;;4900832;29;20607;-78
2022/03/18 08:26:00;;;;;;;8.07;3.03;;;8.20;79.40;;;;;;4901908;29;20211;-78
2022/03/18 08:28:26;;;;;;;8.68;2.83;;;7.90;79.30;;;;;;4902177;29;20194;-78
2022/03/18 08:30:52;;;;;;;15.73;3.33;;;8.00;80.50;;;;;;4900815;29;20235;-78
2022/03/18 08:33:19;;;;;;;9.02;2.95;;;8.00;79.50;;;;;;4900620;29;20180;-78
2022/03/18 08:35:45;;;;;;;10.18;2.75;;;8.00;79.70;;;;;;4902176;29;20279;-79
2022/03/18 08:38:11;;;;;;;11.93;3.33;;;8.20;84.20;;;;;;4900789;29;20631;-78
2022/03/18 08:40:37;;;;;;;8.48;3.15;;;8.30;82.40;;;;;;4899332;29;20199;-78
2022/03/18 08:43:07;;;;;;;6.25;2.47;;;8.40;81.20;;;;;;4900684;29;20194;-78
2022/03/18 08:45:33;;;;;;;7.38;2.78;;;8.50;82.20;;;;;;4900060;29;20208;-78
2022/03/18 08:47:59;;;;;;;6.50;2.65;;;8.50;81.30;;;;;;4900057;29;20179;-78
2022/03/18 08:50:25;;;;;;;10.07;2.92;;;8.60;81.00;;;;;;4899785;29;20199;-78
2022/03/18 08:52:53;;;;;;;11.32;2.70;;;8.60;77.60;;;;;;4899636;29;20179;-79
2022/03/18 08:55:20;;;;;;;8.80;3.00;;;8.60;76.80;;;;;;4898815;29;20281;-78
2022/03/18 08:57:46;;;;;;;7.88;2.50;;;8.50;76.90;;;;;;4900620;29;20211;-78
2022/03/18 09:00:16;;;;;;;9.07;3.00;;;8.50;78.50;;;;;;4900221;29;20176;-78
2022/03/18 09:02:44;;;;;;;6.43;2.80;;;8.40;78.90;;;;;;4903576;29;20188;-78
2022/03/18 09:05:11;;;;;;;5.68;2.88;;;8.40;78.10;;;;;;4900267;29;20236;-80
2022/03/18 09:07:37;;;;;;;15.80;2.97;;;8.40;79.40;;;;;;4897807;29;20186;-78
2022/03/18 09:10:08;;;;;;;8.13;3.00;;;8.40;78.60;;;;;;4902063;29;20190;-78
2022/03/18 09:12:34;;;;;;;9.07;2.75;;;8.30;78.80;;;;;;4901763;29;20251;-78
2022/03/18 09:14:59;;;;;;;15.13;3.50;;;8.30;79.60;;;;;;4901103;29;20211;-78
2022/03/18 09:17:25;;;;;;;5.30;2.63;;;8.30;80.70;;;;;;4902032;29;20251;-78
2022/03/18 09:19:51;;;;;;;11.55;3.17;;;8.30;80.40;;;;;;4901982;29;20306;-78
2022/03/18 09:22:19;;;;;;;9.63;3.28;;;8.30;79.40;;;;;;4902108;29;20179;-78
2022/03/18 09:24:46;;;;;;;7.72;3.22;;;8.20;80.00;;;;;;4901143;29;20176;-78
2022/03/18 09:27:14;;;;;;;10.90;4.35;;;8.20;79.20;;;;;;4900496;29;20655;-78
2022/03/18 09:29:40;;;;;;;9.45;3.40;;;8.10;79.70;;;;;;4900067;29;20195;-78
2022/03/18 09:32:07;;;;;;;9.25;3.47;;;8.00;80.50;;;;;;4901323;29;20271;-78
2022/03/18 09:34:34;;;;;;;11.50;3.65;;;8.00;81.20;;;;;;4900597;29;20188;-78
2022/03/18 09:37:00;;;;;;;11.60;3.45;;;7.80;82.00;;;;;;4902071;29;20260;-78
2022/03/18 09:39:27;;;;;;;8.50;3.08;;;7.90;82.20;;;;;;4901275;29;20773;-78
2022/03/18 09:41:54;;;;;;;9.98;3.55;;;7.70;82.80;;;;;;4904958;29;20304;-78
2022/03/18 09:44:20;;;;;;;7.00;3.08;;;7.70;83.30;;;;;;4884491;29;20640;-78
2022/03/18 09:46:49;;;;;;;6.75;3.08;;;7.80;83.20;;;;;;4882978;29;20328;-78
2022/03/18 09:49:17;;;;;;;9.63;3.92;;;7.70;82.60;;;;;;4882921;29;20184;-78
2022/03/18 09:51:44;;;;;;;8.63;4.22;;;7.80;83.80;;;;;;4886063;29;20188;-78
2022/03/18 09:54:11;;;;;;;8.23;4.65;;;7.90;83.60;;;;;;4885732;29;20184;-79
2022/03/18 09:56:41;;;;;;;12.88;4.68;;;7.90;84.50;;;;;;4885371;29;20208;-78
2022/03/18 09:59:07;;;;;;;10.40;5.03;;;7.60;86.90;;;;;;4885454;29;20241;-78
2022/03/18 10:01:33;;;;;;;7.40;4.93;;;7.60;88.00;;;;;;4885876;29;20184;-81
2022/03/18 10:04:03;;;;;;;9.02;4.55;;;7.60;88.30;;;;;;4885347;29;20192;-78
2022/03/18 10:06:29;;;;;;;10.15;5.10;;;7.70;90.00;;;;;;4883474;29;20208;-78
2022/03/18 10:08:55;;;;;;;12.07;6.95;;;7.90;88.90;;;;;;4884081;29;20184;-78
2022/03/18 10:11:27;;;;;;;19.38;8.73;;;7.70;89.50;;;;;;4884048;29;20188;-78
2022/03/18 10:14:09;;;;;;;11.30;6.13;;;7.60;90.20;;;;;;4891970;29;20207;-78
2022/03/18 10:16:43;;;;;;;12.60;6.55;;;7.80;90.00;;;;;;4883782;29;20216;-78
2022/03/18 10:19:18;;;;;;;10.85;5.90;;;7.90;90.20;;;;;;4884651;29;20216;-78
2022/03/18 10:22:05;;;;;;;12.80;6.50;;;7.80;90.10;;;;;;4881966;29;20216;-78
2022/03/18 10:24:38;;;;;;;12.98;7.13;;;8.00;90.20;;;;;;4883761;29;20179;-78
2022/03/18 10:27:26;;;;;;;11.35;6.28;;;8.20;89.90;;;;;;4882482;29;20236;-78
2022/03/18 10:30:08;;;;;;;13.60;6.00;;;8.40;88.40;;;;;;4881429;29;20655;-78
2022/03/18 10:32:46;;;;;;;8.75;5.38;;;8.50;88.60;;;;;;4882485;29;20188;-78
2022/03/18 10:38:35;;;;;;;16.08;6.78;;;8.50;88.00;;;;;;4882769;29;20204;-78
2022/03/18 10:41:23;;;;;;;14.07;6.88;;;8.60;88.10;;;;;;4883374;29;20199;-78
2022/03/18 10:44:09;;;;;;;7.95;5.78;;;8.60;86.20;;;;;;4883922;29;20696;-78
2022/03/18 10:46:41;;;;;;;12.30;6.47;;;8.70;86.80;;;;;;4883697;29;20228;-78
2022/03/18 10:49:07;;;;;;;15.73;7.53;;;8.90;86.80;;;;;;4883935;29;20537;-78
2022/03/18 10:51:38;;;;;;;11.68;6.40;;;9.10;86.50;;;;;;4883520;29;20219;-79
2022/03/18 10:54:25;;;;;;;11.38;6.03;;;9.30;86.10;;;;;;4883167;29;20180;-78
2022/03/18 10:57:02;;;;;;;12.45;6.43;;;9.40;84.10;;;;;;4881088;29;20295;-78
